Jeremiah, Kentucky
Current Conditions -  °F | °C
As of 3:55 PM on Sunday 23 Nov 2014 (Local Time) from KLNP Reporting Station
Overcast Overcast  
Wind Chill: 52°   Ceiling: 700
Heat Index: 52°   Visibility: 10mi
Dew Point: 50°   Wind: 12mph
Humidity: 94%   Direction: 150°SSE
Pressure: 29.81"   Gusts: 17mph
Location:  37.17°N, 82.93°W
Report Text: KLNP 232055Z AUTO 15010G15KT 10SM BKN007 OVC090 11/10 A2981 RMK AO2
Loading
Personal Weather Stations






























Interactive Weather Map New forecast layout! Learn more

10-Day Weather Forecast

Advertisements
Track Severe Weather on mobile